750XP LLER-OENG
Flight info
| Callsign | 750XP |
|---|---|
| Flight time | N/A |
| Altitude | 43000 |
| Route | NALSO R650 SHM DCT PASUM/N0487F450 L677 WEJ J852 KULKI T510 RBG B544 JDW V31 BHA V40 ABH V749 REVOS |
| Aircraft | C750/M-SBDE3FGHRWXY/S |
Departure
| Time | 2026-05-01 15:06 |
|---|---|
| Airport | Ramon International Airport (LLER) |
Arrival
| Time | N/A |
|---|---|
| Airport | Najran Domestic Airport (OENG) |
| Time | Latitude | Longitude | Altitude | Speed | Heading |
|---|---|---|---|---|---|
| 2026-05-01 14:46 | 29.72488 | 35.00789 | 316 ft | 0 kts | 284° |
| 2026-05-01 14:56 | 29.72487 | 35.00790 | 316 ft | 0 kts | 284° |
| 2026-05-01 14:57 | 29.72485 | 35.00800 | 315 ft | 2 kts | 284° |
| 2026-05-01 14:57 | 29.72478 | 35.00834 | 313 ft | 2 kts | 284° |
| 2026-05-01 14:57 | 29.72475 | 35.00848 | 313 ft | 0 kts | 284° |
| 2026-05-01 14:58 | 29.72474 | 35.00862 | 312 ft | 2 kts | 261° |
| 2026-05-01 14:58 | 29.72480 | 35.00877 | 311 ft | 2 kts | 231° |
| 2026-05-01 14:58 | 29.72492 | 35.00887 | 311 ft | 2 kts | 201° |
| 2026-05-01 14:58 | 29.72498 | 35.00890 | 311 ft | 0 kts | 193° |
| 2026-05-01 15:00 | 29.72489 | 35.00887 | 311 ft | 5 kts | 191° |
| 2026-05-01 15:00 | 29.72422 | 35.00923 | 308 ft | 14 kts | 96° |
| 2026-05-01 15:00 | 29.72395 | 35.01045 | 301 ft | 13 kts | 112° |
| 2026-05-01 15:01 | 29.72310 | 35.01073 | 298 ft | 15 kts | 200° |
| 2026-05-01 15:01 | 29.72224 | 35.01111 | 294 ft | 15 kts | 107° |
| 2026-05-01 15:01 | 29.72219 | 35.01133 | 293 ft | 4 kts | 105° |
| 2026-05-01 15:01 | 29.72213 | 35.01157 | 292 ft | 0 kts | 104° |
| 2026-05-01 15:03 | 29.72200 | 35.01221 | 289 ft | 20 kts | 97° |
| 2026-05-01 15:03 | 29.72242 | 35.01277 | 288 ft | 4 kts | 13° |
| 2026-05-01 15:04 | 29.72247 | 35.01279 | 288 ft | 0 kts | 13° |
| 2026-05-01 15:05 | 29.72286 | 35.01290 | 289 ft | 22 kts | 13° |
| 2026-05-01 15:05 | 29.72758 | 35.01423 | 293 ft | 120 kts | 13° |
| 2026-05-01 15:05 | 29.73759 | 35.01754 | 730 ft | 165 kts | 16° |
| 2026-05-01 15:06 | 29.74842 | 35.02186 | 1823 ft | 181 kts | 19° |
| 2026-05-01 15:06 | 29.76092 | 35.02773 | 2866 ft | 209 kts | 28° |
| 2026-05-01 15:06 | 29.76943 | 35.04033 | 4381 ft | 217 kts | 71° |
| 2026-05-01 15:06 | 29.76719 | 35.05772 | 5496 ft | 245 kts | 119° |
| 2026-05-01 15:07 | 29.75404 | 35.07040 | 6763 ft | 258 kts | 160° |
| 2026-05-01 15:07 | 29.73790 | 35.07000 | 8355 ft | 236 kts | 214° |
| 2026-05-01 15:07 | 29.72780 | 35.05722 | 9798 ft | 215 kts | 255° |
| 2026-05-01 15:07 | 29.72370 | 35.04169 | 10755 ft | 227 kts | 258° |
| 2026-05-01 15:08 | 29.71980 | 35.02277 | 11420 ft | 254 kts | 260° |
| 2026-05-01 15:08 | 29.71567 | 35.00190 | 12016 ft | 285 kts | 255° |
| 2026-05-01 15:08 | 29.70624 | 34.98066 | 12760 ft | 314 kts | 237° |
| 2026-05-01 15:08 | 29.68969 | 34.96380 | 13891 ft | 330 kts | 214° |
| 2026-05-01 15:09 | 29.66936 | 34.95132 | 15150 ft | 333 kts | 212° |
| 2026-05-01 15:09 | 29.64887 | 34.93978 | 16049 ft | 333 kts | 210° |
| 2026-05-01 15:09 | 29.62771 | 34.92821 | 16767 ft | 336 kts | 210° |
| 2026-05-01 15:09 | 29.60606 | 34.91639 | 17414 ft | 342 kts | 210° |
| 2026-05-01 15:10 | 29.58467 | 34.90475 | 18109 ft | 345 kts | 210° |
| 2026-05-01 15:10 | 29.54065 | 34.88081 | 19429 ft | 353 kts | 210° |
| 2026-05-01 15:10 | 29.51762 | 34.87053 | 20054 ft | 361 kts | 204° |
| 2026-05-01 15:11 | 29.49384 | 34.86079 | 20713 ft | 363 kts | 205° |
| 2026-05-01 15:11 | 29.44590 | 34.84106 | 22005 ft | 368 kts | 205° |
| 2026-05-01 15:11 | 29.42148 | 34.83097 | 22560 ft | 372 kts | 205° |
| 2026-05-01 15:12 | 29.39692 | 34.82084 | 23137 ft | 376 kts | 205° |
| 2026-05-01 15:12 | 29.34722 | 34.80035 | 24245 ft | 382 kts | 205° |
| 2026-05-01 15:12 | 29.32204 | 34.79003 | 24779 ft | 385 kts | 205° |
| 2026-05-01 15:13 | 29.24500 | 34.75834 | 26195 ft | 397 kts | 205° |
| 2026-05-01 15:14 | 29.19237 | 34.73671 | 27177 ft | 402 kts | 205° |
| 2026-05-01 15:14 | 29.16573 | 34.72576 | 27608 ft | 405 kts | 205° |
| 2026-05-01 15:14 | 29.11228 | 34.70384 | 28507 ft | 410 kts | 205° |
| 2026-05-01 15:15 | 29.05790 | 34.68158 | 29348 ft | 416 kts | 206° |
| 2026-05-01 15:15 | 29.00120 | 34.66288 | 30034 ft | 429 kts | 198° |
| 2026-05-01 15:16 | 28.94229 | 34.64777 | 30728 ft | 435 kts | 199° |
| 2026-05-01 15:16 | 28.88261 | 34.63234 | 31432 ft | 440 kts | 199° |
| 2026-05-01 15:17 | 28.82132 | 34.61652 | 32035 ft | 447 kts | 199° |
| 2026-05-01 15:18 | 28.72918 | 34.59272 | 32929 ft | 454 kts | 199° |
| 2026-05-01 15:18 | 28.69815 | 34.58474 | 33282 ft | 455 kts | 199° |
| 2026-05-01 15:19 | 28.60445 | 34.56067 | 34120 ft | 462 kts | 200° |
| 2026-05-01 15:19 | 28.54157 | 34.54449 | 35033 ft | 458 kts | 200° |
| 2026-05-01 15:19 | 28.51021 | 34.53645 | 35424 ft | 458 kts | 200° |
| 2026-05-01 15:20 | 28.44827 | 34.52152 | 36348 ft | 453 kts | 200° |
| 2026-05-01 15:20 | 28.41744 | 34.51414 | 36796 ft | 450 kts | 200° |
| 2026-05-01 15:20 | 28.38693 | 34.50671 | 37173 ft | 449 kts | 201° |
| 2026-05-01 15:21 | 28.35599 | 34.49927 | 37476 ft | 449 kts | 201° |
| 2026-05-01 15:21 | 28.32541 | 34.49195 | 37790 ft | 449 kts | 201° |
| 2026-05-01 15:21 | 28.29490 | 34.48459 | 38116 ft | 448 kts | 201° |
| 2026-05-01 15:21 | 28.26427 | 34.47723 | 38482 ft | 446 kts | 202° |
| 2026-05-01 15:22 | 28.20332 | 34.46257 | 39218 ft | 444 kts | 202° |
| 2026-05-01 15:22 | 28.17323 | 34.45536 | 39472 ft | 446 kts | 202° |
| 2026-05-01 15:22 | 28.14247 | 34.44793 | 39800 ft | 450 kts | 202° |
| 2026-05-01 15:23 | 28.11172 | 34.44059 | 40402 ft | 448 kts | 202° |
| 2026-05-01 15:23 | 28.08124 | 34.43334 | 40954 ft | 447 kts | 203° |
| 2026-05-01 15:23 | 28.05023 | 34.42586 | 41341 ft | 449 kts | 203° |
| 2026-05-01 15:23 | 28.01838 | 34.42198 | 41716 ft | 472 kts | 187° |
| 2026-05-01 15:24 | 27.98554 | 34.43014 | 42172 ft | 496 kts | 168° |
| 2026-05-01 15:24 | 27.95495 | 34.44986 | 42513 ft | 517 kts | 147° |
| 2026-05-01 15:24 | 27.92972 | 34.48007 | 42901 ft | 527 kts | 133° |
| 2026-05-01 15:24 | 27.90517 | 34.51068 | 43373 ft | 523 kts | 140° |
| 2026-05-01 15:25 | 27.87912 | 34.53949 | 43724 ft | 523 kts | 141° |
| 2026-05-01 15:25 | 27.85270 | 34.56776 | 44112 ft | 523 kts | 142° |
| 2026-05-01 15:25 | 27.82584 | 34.59639 | 44463 ft | 524 kts | 142° |
| 2026-05-01 15:25 | 27.79920 | 34.62470 | 44817 ft | 524 kts | 142° |
| 2026-05-01 15:26 | 27.74515 | 34.68206 | 44830 ft | 538 kts | 142° |
| 2026-05-01 15:26 | 27.68977 | 34.74069 | 44817 ft | 552 kts | 142° |
| 2026-05-01 15:27 | 27.63294 | 34.80089 | 44820 ft | 566 kts | 141° |
| 2026-05-01 15:28 | 27.54471 | 34.89421 | 44814 ft | 584 kts | 141° |
| 2026-05-01 15:28 | 27.48621 | 34.95886 | 44819 ft | 594 kts | 136° |
| 2026-05-01 15:29 | 27.40038 | 35.06156 | 44828 ft | 597 kts | 137° |
| 2026-05-01 15:30 | 27.28557 | 35.19772 | 44840 ft | 597 kts | 137° |
| 2026-05-01 15:31 | 27.11283 | 35.40178 | 44852 ft | 597 kts | 137° |
| 2026-05-01 15:32 | 26.99761 | 35.53727 | 44856 ft | 596 kts | 137° |
| 2026-05-01 15:34 | 26.82531 | 35.73913 | 44821 ft | 594 kts | 137° |